Time;durP1;ratioP1;P1;durP2;ratioP2;P2;SDS_P1;SDS_P2;PMS_P1;PMS_P2;Temp;Humidity;BMP_temperature;BMP_pressure;BME280_temperature;BME280_humidity;BME280_pressure;Samples;Min_cycle;Max_cycle;Signal;HPM_P1;HPM_P2
2021/12/15 00:02:20;;;;;;;;;52.50;45.00;;;;;;;;5055153;28;11487;-81
2021/12/15 00:04:50;;;;;;;;;50.50;42.00;;;;;;;;5058270;28;11534;-80
2021/12/15 00:07:19;;;;;;;;;51.75;44.50;;;;;;;;5058047;28;11563;-77
2021/12/15 00:09:46;;;;;;;;;48.75;40.75;;;;;;;;5060503;28;11500;-77
2021/12/15 00:12:15;;;;;;;;;56.50;43.50;;;;;;;;5057388;28;11491;-82
2021/12/15 00:14:44;;;;;;;;;50.75;40.25;;;;;;;;5062478;28;11515;-80
2021/12/15 00:17:11;;;;;;;;;53.50;44.25;;;;;;;;5063102;28;12292;-82
2021/12/15 00:19:39;;;;;;;;;55.00;44.25;;;;;;;;5056900;28;11478;-81
2021/12/15 00:22:07;;;;;;;;;56.75;45.50;;;;;;;;5065717;28;11493;-77
2021/12/15 00:24:36;;;;;;;;;59.25;43.50;;;;;;;;5067606;28;11537;-79
2021/12/15 00:27:04;;;;;;;;;52.50;43.75;;;;;;;;5043114;28;11553;-82
2021/12/15 00:29:31;;;;;;;;;49.00;40.50;;;;;;;;5063601;28;11512;-78
2021/12/15 00:32:03;;;;;;;;;47.75;43.25;;;;;;;;5061350;28;11441;-80
2021/12/15 00:34:31;;;;;;;;;55.50;45.50;;;;;;;;5035581;28;11520;-79
2021/12/15 00:36:59;;;;;;;;;53.75;42.75;;;;;;;;5067324;28;11490;-80
2021/12/15 00:39:28;;;;;;;;;55.50;43.50;;;;;;;;5057430;28;11507;-78
2021/12/15 00:41:59;;;;;;;;;55.00;44.75;;;;;;;;5056314;28;11571;-78
2021/12/15 00:44:27;;;;;;;;;58.25;46.00;;;;;;;;5060279;28;11629;-81
2021/12/15 00:46:55;;;;;;;;;53.50;44.50;;;;;;;;5066428;28;11528;-80
2021/12/15 00:49:24;;;;;;;;;56.00;45.50;;;;;;;;5066292;28;11525;-82
2021/12/15 00:51:51;;;;;;;;;53.50;44.00;;;;;;;;5063512;28;11532;-81
2021/12/15 00:54:22;;;;;;;;;53.75;42.25;;;;;;;;5059387;28;11544;-83
2021/12/15 00:56:49;;;;;;;;;54.25;43.75;;;;;;;;5058534;28;11528;-77
2021/12/15 00:59:18;;;;;;;;;51.25;42.00;;;;;;;;5053922;28;11214;-78
2021/12/15 01:01:45;;;;;;;;;52.00;45.00;;;;;;;;5059322;28;12345;-78
2021/12/15 01:04:14;;;;;;;;;56.75;44.00;;;;;;;;5060523;28;11942;-79
2021/12/15 01:06:45;;;;;;;;;56.75;41.50;;;;;;;;5059858;28;13798;-79
2021/12/15 01:09:17;;;;;;;;;55.50;45.25;;;;;;;;5055271;28;11511;-81
2021/12/15 01:12:06;;;;;;;;;59.25;47.50;;;;;;;;5056206;28;11231;-81
2021/12/15 01:19:47;;;;;;;;;50.50;41.00;;;;;;;;5061252;28;11525;-81
2021/12/15 01:20:21;;;;;;;;;41.25;38.25;;;;;;;;5056369;28;11496;-79
2021/12/15 01:22:51;;;;;;;;;54.25;41.75;;;;;;;;5065756;28;11266;-78
2021/12/15 01:25:23;;;;;;;;;53.50;42.00;;;;;;;;5049640;28;11524;-78
2021/12/15 01:27:51;;;;;;;;;54.50;45.50;;;;;;;;5055671;28;11589;-81
2021/12/15 01:30:24;;;;;;;;;50.00;41.50;;;;;;;;5059020;28;11520;-81
2021/12/15 01:32:52;;;;;;;;;55.50;45.00;;;;;;;;5062670;28;11477;-81
2021/12/15 01:35:20;;;;;;;;;52.50;42.00;;;;;;;;5063762;28;11501;-82
2021/12/15 01:37:48;;;;;;;;;53.50;44.75;;;;;;;;5037282;28;11238;-81
2021/12/15 01:40:27;;;;;;;;;43.50;38.75;;;;;;;;5055827;28;11235;-80
2021/12/15 01:42:54;;;;;;;;;52.00;44.50;;;;;;;;5061479;28;11141;-78
2021/12/15 01:48:11;;;;;;;;;56.25;42.25;;;;;;;;5058767;28;11185;-81
2021/12/15 01:50:38;;;;;;;;;51.00;41.00;;;;;;;;5055786;28;11277;-78
2021/12/15 01:53:07;;;;;;;;;50.75;42.75;;;;;;;;5060731;28;11265;-78
2021/12/15 01:55:34;;;;;;;;;51.00;41.00;;;;;;;;5053606;28;12074;-80
2021/12/15 01:58:02;;;;;;;;;52.00;43.00;;;;;;;;5057141;28;12139;-79
2021/12/15 02:00:34;;;;;;;;;40.75;39.25;;;;;;;;5057528;28;11581;-80
2021/12/15 02:03:02;;;;;;;;;51.50;44.25;;;;;;;;5054201;28;11358;-79
2021/12/15 02:05:31;;;;;;;;;51.00;42.50;;;;;;;;5064263;28;11409;-82
2021/12/15 02:07:59;;;;;;;;;53.75;45.00;;;;;;;;5064284;28;11318;-78
2021/12/15 02:10:29;;;;;;;;;54.50;43.25;;;;;;;;5064149;28;11232;-78
2021/12/15 02:12:58;;;;;;;;;53.00;42.75;;;;;;;;5047719;28;11554;-81
2021/12/15 02:15:28;;;;;;;;;49.50;41.00;;;;;;;;5054116;28;11239;-79
2021/12/15 02:17:58;;;;;;;;;42.50;40.50;;;;;;;;5062913;28;11497;-77
2021/12/15 02:20:42;;;;;;;;;55.00;42.50;;;;;;;;5043419;28;11308;-77
2021/12/15 02:23:13;;;;;;;;;40.50;37.50;;;;;;;;5059299;28;11323;-78
2021/12/15 02:25:41;;;;;;;;;59.25;45.75;;;;;;;;5059927;28;11465;-81
2021/12/15 02:28:09;;;;;;;;;42.00;36.50;;;;;;;;5059745;28;11451;-81
2021/12/15 02:30:49;;;;;;;;;54.25;41.25;;;;;;;;5064954;28;11050;-81
2021/12/15 02:38:52;;;;;;;;;55.00;46.00;;;;;;;;5055971;28;11293;-80
2021/12/15 02:41:21;;;;;;;;;45.75;42.00;;;;;;;;5023520;28;11264;-79
2021/12/15 02:43:49;;;;;;;;;48.50;39.00;;;;;;;;5017900;28;11061;-79
2021/12/15 02:46:17;;;;;;;;;50.75;42.00;;;;;;;;5060958;28;11369;-79
2021/12/15 02:48:44;;;;;;;;;51.00;43.75;;;;;;;;5056143;28;11132;-80
2021/12/15 02:51:13;;;;;;;;;31.25;30.00;;;;;;;;5063832;28;11078;-80
2021/12/15 02:53:41;;;;;;;;;48.25;42.75;;;;;;;;5056422;28;11069;-78
2021/12/15 02:56:08;;;;;;;;;45.50;39.25;;;;;;;;5058905;28;11303;-82
2021/12/15 02:58:38;;;;;;;;;45.75;39.50;;;;;;;;5052153;28;11385;-77
2021/12/15 03:01:15;;;;;;;;;48.75;41.25;;;;;;;;5045570;28;12073;-79
2021/12/15 03:06:34;;;;;;;;;46.50;40.25;;;;;;;;5053258;28;11934;-77
2021/12/15 03:09:16;;;;;;;;;39.25;37.00;;;;;;;;5062180;28;11046;-79
2021/12/15 03:17:18;;;;;;;;;41.00;34.75;;;;;;;;5052922;28;11164;-82
2021/12/15 03:19:46;;;;;;;;;44.00;40.00;;;;;;;;5056653;28;11265;-77
2021/12/15 03:22:14;;;;;;;;;44.75;37.25;;;;;;;;5058890;28;11204;-78
2021/12/15 03:24:42;;;;;;;;;51.25;41.25;;;;;;;;5052085;28;11085;-80
2021/12/15 03:27:15;;;;;;;;;52.00;44.00;;;;;;;;5061520;28;11243;-80
2021/12/15 03:35:32;;;;;;;;;41.25;36.25;;;;;;;;5061243;28;11913;-76
2021/12/15 03:38:02;;;;;;;;;43.50;37.50;;;;;;;;5060993;28;11124;-80
2021/12/15 03:40:37;;;;;;;;;40.00;35.75;;;;;;;;5057267;28;11121;-79
2021/12/15 03:43:07;;;;;;;;;30.50;27.50;;;;;;;;5050055;28;11196;-77
2021/12/15 03:45:38;;;;;;;;;40.75;38.00;;;;;;;;5050309;28;11306;-78
2021/12/15 03:48:08;;;;;;;;;48.50;41.25;;;;;;;;5058999;28;11118;-78
2021/12/15 03:50:36;;;;;;;;;50.50;37.00;;;;;;;;5060802;28;11145;-76
2021/12/15 03:53:05;;;;;;;;;40.50;38.50;;;;;;;;5066664;28;11113;-77
2021/12/15 03:55:35;;;;;;;;;51.00;41.75;;;;;;;;5052160;28;11039;-83
2021/12/15 03:58:06;;;;;;;;;46.50;40.75;;;;;;;;5056037;28;11310;-81
2021/12/15 04:00:35;;;;;;;;;43.50;40.00;;;;;;;;5056621;28;11046;-83
2021/12/15 04:03:02;;;;;;;;;41.25;38.00;;;;;;;;5058342;28;11120;-82
2021/12/15 04:05:30;;;;;;;;;45.25;35.50;;;;;;;;5057741;28;10973;-82
2021/12/15 04:07:58;;;;;;;;;42.50;38.50;;;;;;;;5057524;28;11013;-79
2021/12/15 04:10:28;;;;;;;;;42.75;35.25;;;;;;;;5064446;28;10916;-80
2021/12/15 04:12:55;;;;;;;;;45.75;40.00;;;;;;;;5056588;28;11067;-78
2021/12/15 04:15:29;;;;;;;;;53.50;40.00;;;;;;;;5053495;28;11257;-80
2021/12/15 04:17:57;;;;;;;;;34.50;32.50;;;;;;;;5052538;28;11713;-80
2021/12/15 04:20:30;;;;;;;;;43.25;36.75;;;;;;;;5057241;28;10925;-79
2021/12/15 04:22:59;;;;;;;;;39.00;35.50;;;;;;;;5061738;28;11074;-79
2021/12/15 04:25:30;;;;;;;;;34.50;31.00;;;;;;;;5058606;28;11113;-76
2021/12/15 04:28:02;;;;;;;;;36.75;34.75;;;;;;;;5052685;28;10924;-78
2021/12/15 04:30:32;;;;;;;;;41.50;37.25;;;;;;;;5053131;28;12376;-75
2021/12/15 04:33:07;;;;;;;;;36.50;31.00;;;;;;;;5039054;28;11658;-77
2021/12/15 04:35:35;;;;;;;;;38.00;33.75;;;;;;;;5060812;28;11064;-80
2021/12/15 04:38:03;;;;;;;;;39.00;36.50;;;;;;;;5058345;28;11696;-78
2021/12/15 04:40:33;;;;;;;;;43.25;36.75;;;;;;;;5062762;28;10827;-79
2021/12/15 04:43:00;;;;;;;;;31.50;29.25;;;;;;;;5053567;28;11056;-79
2021/12/15 04:45:29;;;;;;;;;48.00;39.25;;;;;;;;5070988;28;10890;-83
2021/12/15 04:47:57;;;;;;;;;35.75;31.50;;;;;;;;5054991;28;11089;-78
2021/12/15 04:50:27;;;;;;;;;47.00;35.50;;;;;;;;5059765;28;10860;-80
2021/12/15 04:52:59;;;;;;;;;44.00;40.00;;;;;;;;5059273;28;12034;-79
2021/12/15 04:55:28;;;;;;;;;43.75;36.75;;;;;;;;5060894;28;11025;-78
2021/12/15 04:57:58;;;;;;;;;38.25;32.75;;;;;;;;5058859;28;10826;-80
2021/12/15 05:00:29;;;;;;;;;40.75;34.50;;;;;;;;5056415;28;10807;-82
2021/12/15 05:02:57;;;;;;;;;40.00;37.50;;;;;;;;5059379;28;10699;-78
2021/12/15 05:05:26;;;;;;;;;40.25;36.25;;;;;;;;5060073;28;10835;-79
2021/12/15 05:07:54;;;;;;;;;33.25;33.25;;;;;;;;5058531;28;10695;-81
2021/12/15 05:10:22;;;;;;;;;33.25;30.00;;;;;;;;5060328;28;10736;-79
2021/12/15 05:12:50;;;;;;;;;33.00;30.50;;;;;;;;5061251;28;10671;-83
2021/12/15 05:15:19;;;;;;;;;37.25;33.00;;;;;;;;5059624;28;10845;-78
2021/12/15 05:17:47;;;;;;;;;36.00;31.75;;;;;;;;5059937;28;11616;-80
2021/12/15 05:20:14;;;;;;;;;29.25;25.75;;;;;;;;5043946;28;10830;-81
2021/12/15 05:22:42;;;;;;;;;36.00;36.00;;;;;;;;5064916;28;10869;-80
2021/12/15 05:25:10;;;;;;;;;26.25;25.25;;;;;;;;5061833;28;10922;-80
2021/12/15 05:27:39;;;;;;;;;42.25;36.50;;;;;;;;5054876;28;10762;-76
2021/12/15 05:30:09;;;;;;;;;18.75;12.75;;;;;;;;5041625;28;10762;-76
2021/12/15 05:32:38;;;;;;;;;36.25;31.00;;;;;;;;5043260;28;10796;-78
2021/12/15 05:35:09;;;;;;;;;28.75;26.25;;;;;;;;5061185;28;10657;-78
2021/12/15 05:37:38;;;;;;;;;35.50;34.00;;;;;;;;5062242;28;10644;-78
2021/12/15 05:40:07;;;;;;;;;45.00;34.50;;;;;;;;5043296;28;10696;-79
2021/12/15 05:42:35;;;;;;;;;37.50;32.50;;;;;;;;5061186;28;10515;-79
2021/12/15 05:45:02;;;;;;;;;36.00;31.75;;;;;;;;5060539;28;10491;-81
2021/12/15 05:47:30;;;;;;;;;37.00;35.50;;;;;;;;5056278;28;10660;-78
2021/12/15 05:49:59;;;;;;;;;45.00;38.00;;;;;;;;5043040;28;10726;-82
2021/12/15 05:52:30;;;;;;;;;31.25;30.25;;;;;;;;5059735;28;10704;-79
2021/12/15 05:54:57;;;;;;;;;38.00;29.50;;;;;;;;5044322;28;10552;-81
2021/12/15 05:57:25;;;;;;;;;38.25;37.00;;;;;;;;5057356;28;10517;-80
2021/12/15 05:59:52;;;;;;;;;33.25;29.25;;;;;;;;5043461;28;10657;-79
2021/12/15 06:02:20;;;;;;;;;37.50;32.75;;;;;;;;5057312;28;10552;-79
2021/12/15 06:04:47;;;;;;;;;35.25;26.50;;;;;;;;5059246;28;10523;-79
2021/12/15 06:07:16;;;;;;;;;32.75;29.75;;;;;;;;5058202;28;10565;-83
2021/12/15 06:09:43;;;;;;;;;31.50;29.75;;;;;;;;5057863;28;10499;-80
2021/12/15 06:12:11;;;;;;;;;44.50;32.75;;;;;;;;5043768;28;10634;-79
2021/12/15 06:14:39;;;;;;;;;36.25;34.00;;;;;;;;5055702;28;10804;-81
2021/12/15 06:17:10;;;;;;;;;38.25;36.25;;;;;;;;5040179;28;10858;-81
2021/12/15 06:19:37;;;;;;;;;37.50;36.00;;;;;;;;5057179;28;10771;-80
2021/12/15 06:22:05;;;;;;;;;46.25;40.25;;;;;;;;5058568;28;10746;-80
2021/12/15 06:24:36;;;;;;;;;37.00;35.75;;;;;;;;5059302;28;10925;-79
2021/12/15 06:27:09;;;;;;;;;39.00;35.00;;;;;;;;5057300;28;10979;-84
2021/12/15 06:29:37;;;;;;;;;34.75;30.25;;;;;;;;5059415;28;10880;-78
2021/12/15 06:32:05;;;;;;;;;42.50;38.00;;;;;;;;5058562;28;10745;-79
2021/12/15 06:34:32;;;;;;;;;34.50;29.00;;;;;;;;5049400;28;11011;-77
2021/12/15 06:37:00;;;;;;;;;48.50;40.75;;;;;;;;5057878;28;10825;-79
2021/12/15 06:39:28;;;;;;;;;39.75;35.50;;;;;;;;5058107;28;11877;-79
2021/12/15 06:41:59;;;;;;;;;40.50;37.50;;;;;;;;5057205;28;10847;-78
2021/12/15 06:44:26;;;;;;;;;53.50;39.75;;;;;;;;5052595;28;10886;-80
2021/12/15 06:58:13;;;;;;;;;45.25;41.00;;;;;;;;5061168;28;11486;-74
2021/12/15 07:00:45;;;;;;;;;44.50;40.00;;;;;;;;5063104;28;11054;-74
2021/12/15 07:03:13;;;;;;;;;49.00;40.75;;;;;;;;5054441;28;11159;-74
2021/12/15 07:05:40;;;;;;;;;36.00;32.50;;;;;;;;5050371;28;11183;-75
2021/12/15 07:08:09;;;;;;;;;49.50;39.50;;;;;;;;5055523;28;10826;-75
2021/12/15 07:10:40;;;;;;;;;50.00;41.50;;;;;;;;5057008;28;11278;-75
2021/12/15 07:13:10;;;;;;;;;41.25;33.50;;;;;;;;5059928;28;11465;-73
2021/12/15 07:15:38;;;;;;;;;40.00;35.25;;;;;;;;5050023;28;11003;-74
2021/12/15 07:18:09;;;;;;;;;65.75;52.25;;;;;;;;5035750;28;11045;-75
2021/12/15 07:20:41;;;;;;;;;51.50;42.00;;;;;;;;5056906;28;12074;-74
2021/12/15 07:23:10;;;;;;;;;32.50;32.50;;;;;;;;5064378;28;11633;-73
2021/12/15 07:25:39;;;;;;;;;36.25;31.75;;;;;;;;5058451;28;10919;-74
2021/12/15 07:28:08;;;;;;;;;32.50;31.75;;;;;;;;5062913;28;10860;-73
2021/12/15 07:30:37;;;;;;;;;41.25;39.75;;;;;;;;5062512;28;11041;-74
2021/12/15 07:33:05;;;;;;;;;39.75;34.25;;;;;;;;5062182;28;11327;-75
2021/12/15 07:35:34;;;;;;;;;34.25;30.25;;;;;;;;5024345;28;11825;-74
2021/12/15 07:38:01;;;;;;;;;44.50;39.50;;;;;;;;5021135;28;11110;-74
2021/12/15 07:40:29;;;;;;;;;38.25;35.50;;;;;;;;5021583;28;11265;-73
2021/12/15 07:43:06;;;;;;;;;39.00;38.00;;;;;;;;5022677;28;11264;-73
2021/12/15 07:45:39;;;;;;;;;55.25;44.50;;;;;;;;5018883;28;11328;-75
2021/12/15 07:48:07;;;;;;;;;37.00;35.00;;;;;;;;5013253;28;11546;-75
2021/12/15 07:50:36;;;;;;;;;39.75;36.50;;;;;;;;5017143;28;11089;-74
2021/12/15 07:53:03;;;;;;;;;47.00;41.00;;;;;;;;5023158;28;11971;-75
2021/12/15 07:55:31;;;;;;;;;43.25;39.75;;;;;;;;5010732;28;11668;-74
2021/12/15 07:57:59;;;;;;;;;43.75;37.25;;;;;;;;5018716;28;11765;-75
2021/12/15 08:00:27;;;;;;;;;39.50;35.00;;;;;;;;5016536;28;11240;-75
2021/12/15 08:02:55;;;;;;;;;44.00;39.00;;;;;;;;5012800;28;11394;-75
2021/12/15 08:05:23;;;;;;;;;41.25;35.00;;;;;;;;5012381;28;11574;-74
2021/12/15 08:07:50;;;;;;;;;42.50;39.00;;;;;;;;5019791;28;11308;-75
2021/12/15 08:10:18;;;;;;;;;33.50;33.50;;;;;;;;5027430;28;11706;-74
2021/12/15 08:12:46;;;;;;;;;47.00;40.75;;;;;;;;5013388;28;11070;-76
2021/12/15 08:15:15;;;;;;;;;45.50;35.00;;;;;;;;5014414;28;11550;-75
2021/12/15 08:17:43;;;;;;;;;39.25;34.00;;;;;;;;5022826;28;11574;-73
2021/12/15 08:20:13;;;;;;;;;33.50;33.50;;;;;;;;5020813;28;11350;-75
2021/12/15 08:22:41;;;;;;;;;34.25;30.00;;;;;;;;5024541;28;11335;-74
2021/12/15 08:25:11;;;;;;;;;33.50;30.75;;;;;;;;5017533;28;11180;-76
2021/12/15 08:27:39;;;;;;;;;66.50;51.50;;;;;;;;5019653;28;11200;-74
2021/12/15 08:30:08;;;;;;;;;43.00;37.00;;;;;;;;5012451;28;11654;-74
2021/12/15 08:32:35;;;;;;;;;34.00;32.75;;;;;;;;5014275;28;11556;-76
2021/12/15 08:35:03;;;;;;;;;49.75;38.00;;;;;;;;5042680;28;11226;-76
2021/12/15 08:37:33;;;;;;;;;47.50;37.50;;;;;;;;5071369;28;11217;-76
2021/12/15 08:40:00;;;;;;;;;42.00;36.00;;;;;;;;5062555;28;11237;-76
2021/12/15 08:42:29;;;;;;;;;44.25;38.75;;;;;;;;5064058;28;11511;-74
2021/12/15 08:44:57;;;;;;;;;34.25;33.50;;;;;;;;5053623;28;11220;-75
2021/12/15 08:47:24;;;;;;;;;38.00;37.25;;;;;;;;5058351;28;11212;-74
2021/12/15 08:49:53;;;;;;;;;35.50;35.50;;;;;;;;5060932;28;11293;-74
2021/12/15 08:52:20;;;;;;;;;35.75;34.75;;;;;;;;5066065;28;11857;-74
2021/12/15 08:54:49;;;;;;;;;41.00;36.00;;;;;;;;5079139;28;10982;-73
2021/12/15 08:57:17;;;;;;;;;33.25;33.25;;;;;;;;5048432;28;11062;-74
2021/12/15 08:59:44;;;;;;;;;52.50;42.25;;;;;;;;5065561;28;11315;-74
2021/12/15 09:02:12;;;;;;;;;40.75;28.75;;;;;;;;5065831;28;11587;-74
2021/12/15 09:04:40;;;;;;;;;40.50;38.50;;;;;;;;5065436;28;12048;-75
2021/12/15 09:07:07;;;;;;;;;33.50;31.00;;;;;;;;5061909;28;11066;-75
2021/12/15 09:09:35;;;;;;;;;34.00;34.00;;;;;;;;5065529;28;11142;-74
2021/12/15 09:12:05;;;;;;;;;42.00;38.25;;;;;;;;5066398;28;11008;-75
2021/12/15 09:14:32;;;;;;;;;40.75;37.50;;;;;;;;5066595;28;11920;-74
2021/12/15 09:17:01;;;;;;;;;37.75;36.75;;;;;;;;5065297;28;11921;-74
2021/12/15 09:19:30;;;;;;;;;36.25;36.25;;;;;;;;5065958;28;11755;-73
2021/12/15 09:21:57;;;;;;;;;39.25;37.00;;;;;;;;5067228;28;10941;-74
2021/12/15 09:24:25;;;;;;;;;28.75;28.75;;;;;;;;5055358;28;11106;-73
2021/12/15 09:26:53;;;;;;;;;64.25;51.50;;;;;;;;5065494;28;10893;-74
2021/12/15 09:29:23;;;;;;;;;55.50;46.25;;;;;;;;5065406;28;11528;-75
2021/12/15 09:31:51;;;;;;;;;65.00;52.25;;;;;;;;5064444;28;11536;-73
2021/12/15 09:34:18;;;;;;;;;44.50;40.50;;;;;;;;5046180;28;11684;-74
2021/12/15 09:36:47;;;;;;;;;49.25;38.75;;;;;;;;5061482;28;11309;-74
2021/12/15 09:39:17;;;;;;;;;35.75;35.75;;;;;;;;5051577;28;11173;-74
2021/12/15 09:41:45;;;;;;;;;41.75;36.75;;;;;;;;5060328;28;10848;-75
2021/12/15 09:44:16;;;;;;;;;35.50;31.75;;;;;;;;5065131;28;11276;-75
2021/12/15 10:03:34;;;;;;;;;60.75;48.75;;;;;;;;5061105;28;11508;-74
2021/12/15 10:06:17;;;;;;;;;50.75;45.00;;;;;;;;5058369;28;11644;-75
2021/12/15 10:20:00;;;;;;;;;39.50;35.75;;;;;;;;5065403;28;11010;-74
2021/12/15 10:22:35;;;;;;;;;43.25;30.00;;;;;;;;5064803;28;10893;-74
2021/12/15 10:25:08;;;;;;;;;39.25;37.00;;;;;;;;5065473;28;11137;-75
2021/12/15 10:27:40;;;;;;;;;36.00;30.25;;;;;;;;5063979;28;10992;-75
2021/12/15 10:30:12;;;;;;;;;37.75;32.75;;;;;;;;5063833;28;10779;-74
2021/12/15 10:32:41;;;;;;;;;38.50;33.50;;;;;;;;5051804;28;10895;-75
2021/12/15 10:35:14;;;;;;;;;43.50;37.75;;;;;;;;5063858;28;10903;-74
2021/12/15 10:37:42;;;;;;;;;35.50;34.75;;;;;;;;5065600;28;10860;-74
2021/12/15 10:40:19;;;;;;;;;43.00;36.25;;;;;;;;5049637;28;11041;-75
2021/12/15 10:42:48;;;;;;;;;40.50;37.25;;;;;;;;5045162;28;10972;-75
2021/12/15 10:45:17;;;;;;;;;46.00;39.25;;;;;;;;5044434;28;10999;-74
2021/12/15 10:47:46;;;;;;;;;43.00;38.50;;;;;;;;5048044;28;11072;-75
2021/12/15 10:50:17;;;;;;;;;27.00;25.25;;;;;;;;5061373;28;11064;-75
2021/12/15 10:52:56;;;;;;;;;37.75;35.00;;;;;;;;5045833;28;10758;-74
2021/12/15 10:55:31;;;;;;;;;49.00;43.00;;;;;;;;5069586;28;11577;-74
2021/12/15 10:58:00;;;;;;;;;34.50;32.75;;;;;;;;5063445;28;11212;-75
2021/12/15 11:00:28;;;;;;;;;38.00;34.00;;;;;;;;5063100;28;10599;-75
2021/12/15 11:03:14;;;;;;;;;32.75;29.75;;;;;;;;5063867;28;10643;-74
2021/12/15 11:05:43;;;;;;;;;36.50;32.25;;;;;;;;5062514;28;10654;-74
2021/12/15 11:08:10;;;;;;;;;32.00;31.25;;;;;;;;5064328;28;10535;-74
2021/12/15 11:10:39;;;;;;;;;30.25;28.25;;;;;;;;5045497;28;10594;-74
2021/12/15 11:13:09;;;;;;;;;32.25;32.25;;;;;;;;5064712;28;10547;-74
2021/12/15 11:15:41;;;;;;;;;26.75;26.00;;;;;;;;5033579;28;10451;-75
2021/12/15 11:18:15;;;;;;;;;24.25;19.25;;;;;;;;5065334;28;10286;-74
2021/12/15 11:20:46;;;;;;;;;33.25;29.25;;;;;;;;5054025;28;10262;-75
2021/12/15 11:23:15;;;;;;;;;32.75;32.75;;;;;;;;5039771;28;10269;-75
2021/12/15 11:25:46;;;;;;;;;29.25;26.00;;;;;;;;5065861;28;10512;-76
2021/12/15 11:28:18;;;;;;;;;23.00;20.50;;;;;;;;5063418;28;10580;-75
2021/12/15 11:30:49;;;;;;;;;28.50;23.25;;;;;;;;5063264;28;10340;-75
2021/12/15 11:33:19;;;;;;;;;27.50;27.50;;;;;;;;5063879;28;10666;-76
2021/12/15 11:35:51;;;;;;;;;23.75;23.25;;;;;;;;5063159;28;10575;-75
2021/12/15 11:38:21;;;;;;;;;23.00;21.25;;;;;;;;5056010;28;10589;-75
2021/12/15 11:40:53;;;;;;;;;33.00;29.50;;;;;;;;5062217;28;10434;-74
2021/12/15 11:43:46;;;;;;;;;25.50;25.50;;;;;;;;5062793;28;10580;-76
2021/12/15 11:46:20;;;;;;;;;28.25;26.25;;;;;;;;5063428;28;10908;-75
2021/12/15 11:48:49;;;;;;;;;32.75;24.75;;;;;;;;5058201;28;11440;-75
2021/12/15 11:51:41;;;;;;;;;24.25;21.75;;;;;;;;5043928;28;10370;-75
2021/12/15 11:54:19;;;;;;;;;38.75;36.50;;;;;;;;5061137;28;10498;-75
2021/12/15 11:56:47;;;;;;;;;39.25;34.50;;;;;;;;5047707;28;10916;-76
2021/12/15 11:59:24;;;;;;;;;25.25;25.00;;;;;;;;5055588;28;10846;-74
2021/12/15 12:01:56;;;;;;;;;30.50;28.00;;;;;;;;5046864;28;10446;-74
2021/12/15 12:04:28;;;;;;;;;23.25;23.25;;;;;;;;5064162;28;10448;-77
2021/12/15 12:07:11;;;;;;;;;34.00;31.00;;;;;;;;5056583;28;10354;-75
2021/12/15 12:09:40;;;;;;;;;28.50;24.75;;;;;;;;5053654;28;10438;-75
2021/12/15 12:12:08;;;;;;;;;26.25;21.00;;;;;;;;5059790;28;10444;-77
2021/12/15 12:14:42;;;;;;;;;30.25;30.00;;;;;;;;5063650;28;10181;-77
2021/12/15 12:17:13;;;;;;;;;24.50;24.50;;;;;;;;5065364;28;10270;-76
2021/12/15 12:19:47;;;;;;;;;31.50;26.50;;;;;;;;5059491;28;10700;-77
2021/12/15 12:22:17;;;;;;;;;26.75;23.75;;;;;;;;5064574;28;10350;-77
2021/12/15 12:24:47;;;;;;;;;28.00;28.00;;;;;;;;5064106;28;10263;-78
2021/12/15 12:27:15;;;;;;;;;22.50;22.25;;;;;;;;5062371;28;10276;-75
2021/12/15 12:29:43;;;;;;;;;21.25;21.25;;;;;;;;5039430;28;11108;-79
2021/12/15 12:32:11;;;;;;;;;24.00;23.75;;;;;;;;5056930;28;10078;-77
2021/12/15 12:34:41;;;;;;;;;28.75;26.75;;;;;;;;5066713;28;10091;-74
2021/12/15 12:37:11;;;;;;;;;20.00;19.00;;;;;;;;5062668;28;10059;-75
2021/12/15 12:39:41;;;;;;;;;21.50;21.50;;;;;;;;5061114;28;9899;-79
2021/12/15 12:42:09;;;;;;;;;29.25;29.00;;;;;;;;5063543;28;10000;-77
2021/12/15 12:44:39;;;;;;;;;21.25;20.75;;;;;;;;5060028;28;10000;-77
2021/12/15 12:47:20;;;;;;;;;18.75;18.75;;;;;;;;5059376;28;10712;-79
2021/12/15 13:01:21;;;;;;;;;19.50;17.25;;;;;;;;5063779;28;9815;-76
2021/12/15 13:03:54;;;;;;;;;15.00;14.00;;;;;;;;5061910;28;9578;-75
2021/12/15 13:06:25;;;;;;;;;18.75;16.75;;;;;;;;5063232;28;9543;-78
2021/12/15 13:08:57;;;;;;;;;17.25;14.25;;;;;;;;5062444;28;9554;-75
2021/12/15 13:11:35;;;;;;;;;14.67;13.00;;;;;;;;5064681;28;9560;-75
2021/12/15 13:14:06;;;;;;;;;16.50;14.50;;;;;;;;5066283;28;9526;-78
2021/12/15 13:16:40;;;;;;;;;17.75;15.00;;;;;;;;5060546;28;9423;-76
2021/12/15 13:19:20;;;;;;;;;13.33;13.33;;;;;;;;5064175;28;9391;-75
2021/12/15 13:22:05;;;;;;;;;23.00;20.50;;;;;;;;5044567;28;9274;-77
2021/12/15 13:30:40;;;;;;;;;14.33;14.33;;;;;;;;5060526;28;9180;-75
2021/12/15 13:33:13;;;;;;;;;21.33;16.00;;;;;;;;5063677;28;9297;-75
2021/12/15 13:35:52;;;;;;;;;16.33;14.00;;;;;;;;5064046;28;9482;-74
2021/12/15 13:38:22;;;;;;;;;13.00;13.00;;;;;;;;5052444;28;9421;-75
2021/12/15 13:40:57;;;;;;;;;8.00;8.00;;;;;;;;5054552;28;9279;-75
2021/12/15 13:43:42;;;;;;;;;13.00;13.00;;;;;;;;5044376;28;9429;-74
2021/12/15 13:46:41;;;;;;;;;12.00;12.00;;;;;;;;5043856;28;9430;-76
2021/12/15 13:49:23;;;;;;;;;14.67;14.67;;;;;;;;5044052;28;9368;-75
2021/12/15 13:52:22;;;;;;;;;14.00;14.00;;;;;;;;5054524;28;9333;-77
2021/12/15 13:55:25;;;;;;;;;14.75;12.75;;;;;;;;5069632;28;9254;-76
2021/12/15 13:58:01;;;;;;;;;21.25;18.25;;;;;;;;5056293;28;9593;-75
2021/12/15 14:00:34;;;;;;;;;15.00;15.00;;;;;;;;5051132;28;9592;-77
2021/12/15 14:03:07;;;;;;;;;17.50;17.50;;;;;;;;5056145;28;9514;-74
2021/12/15 14:05:37;;;;;;;;;20.67;16.67;;;;;;;;5062971;28;9554;-74
2021/12/15 14:08:08;;;;;;;;;17.00;17.00;;;;;;;;5058624;28;9368;-73
2021/12/15 14:10:57;;;;;;;;;12.67;12.00;;;;;;;;5046379;28;9397;-73
2021/12/15 14:13:45;;;;;;;;;11.00;7.00;;;;;;;;5052113;28;9363;-75
2021/12/15 14:16:15;;;;;;;;;14.00;14.00;;;;;;;;5063791;28;9214;-76
2021/12/15 14:18:42;;;;;;;;;12.67;12.67;;;;;;;;5062982;28;9455;-74
2021/12/15 14:21:12;;;;;;;;;14.33;14.33;;;;;;;;5064365;28;9368;-74
2021/12/15 14:23:41;;;;;;;;;10.67;9.00;;;;;;;;5043697;28;9254;-74
2021/12/15 14:26:11;;;;;;;;;15.00;15.00;;;;;;;;5062005;28;9363;-75
2021/12/15 14:28:41;;;;;;;;;10.00;10.00;;;;;;;;5055286;28;9396;-75
2021/12/15 14:31:17;;;;;;;;;11.67;11.67;;;;;;;;5061017;28;9122;-75
2021/12/15 14:33:46;;;;;;;;;7.00;7.00;;;;;;;;5061797;28;9269;-75
2021/12/15 14:36:17;;;;;;;;;10.00;10.00;;;;;;;;5064616;28;10025;-75
2021/12/15 14:38:46;;;;;;;;;8.67;8.33;;;;;;;;5049172;28;9124;-73
2021/12/15 14:41:18;;;;;;;;;10.00;10.00;;;;;;;;5061958;28;9203;-73
2021/12/15 14:43:50;;;;;;;;;14.67;13.00;;;;;;;;5059587;28;9838;-75
2021/12/15 14:46:22;;;;;;;;;13.00;10.00;;;;;;;;5044595;28;9276;-75
2021/12/15 14:49:02;;;;;;;;;14.00;10.00;;;;;;;;5060226;28;9100;-75
2021/12/15 14:51:30;;;;;;;;;13.00;10.00;;;;;;;;5055987;28;9997;-75
2021/12/15 14:53:58;;;;;;;;;13.67;11.33;;;;;;;;5051521;28;9204;-76
2021/12/15 14:56:38;;;;;;;;;10.33;10.33;;;;;;;;5052265;28;9106;-75
2021/12/15 14:59:05;;;;;;;;;13.00;10.00;;;;;;;;5048895;28;9032;-75
2021/12/15 15:01:34;;;;;;;;;16.67;16.67;;;;;;;;5051993;28;10039;-77
2021/12/15 15:04:03;;;;;;;;;12.33;11.00;;;;;;;;5039144;28;9366;-78
2021/12/15 15:06:31;;;;;;;;;12.33;12.33;;;;;;;;5050464;28;9133;-77
2021/12/15 15:09:18;;;;;;;;;13.33;13.33;;;;;;;;5056624;28;9168;-75
2021/12/15 15:11:57;;;;;;;;;15.00;15.00;;;;;;;;5060142;28;9318;-79
2021/12/15 15:14:30;;;;;;;;;15.67;15.67;;;;;;;;5060681;28;9176;-81
2021/12/15 15:16:59;;;;;;;;;14.33;14.33;;;;;;;;5061715;28;9325;-76
2021/12/15 15:19:29;;;;;;;;;18.00;16.00;;;;;;;;5054488;28;10222;-77
2021/12/15 15:21:58;;;;;;;;;23.33;17.67;;;;;;;;5060196;28;9310;-78
2021/12/15 15:24:29;;;;;;;;;23.33;23.33;;;;;;;;5063324;28;9208;-79
2021/12/15 15:27:04;;;;;;;;;20.33;18.67;;;;;;;;5060721;28;9320;-78
2021/12/15 15:29:38;;;;;;;;;20.67;16.67;;;;;;;;5054273;28;9344;-78
2021/12/15 15:32:18;;;;;;;;;14.00;14.00;;;;;;;;5059369;28;9262;-77
2021/12/15 15:34:46;;;;;;;;;18.00;18.00;;;;;;;;5049484;28;9461;-79
2021/12/15 15:37:20;;;;;;;;;25.00;20.33;;;;;;;;5059308;28;9278;-73
2021/12/15 15:40:01;;;;;;;;;17.67;15.67;;;;;;;;5060842;28;9294;-77
2021/12/15 15:42:29;;;;;;;;;19.00;17.67;;;;;;;;5059308;28;10234;-81
2021/12/15 15:44:57;;;;;;;;;18.67;18.67;;;;;;;;5060501;28;9245;-80
2021/12/15 15:47:26;;;;;;;;;18.67;15.67;;;;;;;;5060869;28;9332;-80
2021/12/15 15:49:57;;;;;;;;;20.33;18.33;;;;;;;;5058683;28;10138;-81
2021/12/15 15:52:25;;;;;;;;;13.33;13.33;;;;;;;;5056280;28;9356;-81
2021/12/15 15:54:53;;;;;;;;;17.00;13.67;;;;;;;;5057797;28;9174;-79
2021/12/15 15:57:23;;;;;;;;;15.00;15.00;;;;;;;;5050265;28;9402;-78
2021/12/15 15:59:52;;;;;;;;;19.67;19.67;;;;;;;;5058246;28;9184;-80
2021/12/15 16:02:22;;;;;;;;;19.00;19.00;;;;;;;;5041105;28;9222;-83